sensor_id;sensor_type;location;lat;lon;timestamp;P1;durP1;ratioP1;P2;durP2;ratioP2
22650;SDS011;11492;42.646;23.400;2024-02-23T00:01:51;27.65;;;14.70;;
22650;SDS011;11492;42.646;23.400;2024-02-23T00:04:17;28.52;;;15.32;;
22650;SDS011;11492;42.646;23.400;2024-02-23T00:06:44;25.35;;;14.63;;
22650;SDS011;11492;42.646;23.400;2024-02-23T00:09:10;26.77;;;14.50;;
22650;SDS011;11492;42.646;23.400;2024-02-23T00:11:39;25.50;;;13.98;;
22650;SDS011;11492;42.646;23.400;2024-02-23T00:14:10;26.58;;;14.15;;
22650;SDS011;11492;42.646;23.400;2024-02-23T00:16:37;27.48;;;14.93;;
22650;SDS011;11492;42.646;23.400;2024-02-23T00:19:07;35.40;;;14.10;;
22650;SDS011;11492;42.646;23.400;2024-02-23T00:21:39;32.78;;;14.80;;
22650;SDS011;11492;42.646;23.400;2024-02-23T00:24:07;30.65;;;14.05;;
22650;SDS011;11492;42.646;23.400;2024-02-23T00:26:33;29.05;;;14.90;;
22650;SDS011;11492;42.646;23.400;2024-02-23T00:28:59;30.67;;;15.15;;
22650;SDS011;11492;42.646;23.400;2024-02-23T00:31:25;23.73;;;13.88;;
22650;SDS011;11492;42.646;23.400;2024-02-23T00:33:51;27.38;;;13.75;;
22650;SDS011;11492;42.646;23.400;2024-02-23T00:36:17;30.00;;;14.15;;
22650;SDS011;11492;42.646;23.400;2024-02-23T00:38:42;26.27;;;14.82;;
22650;SDS011;11492;42.646;23.400;2024-02-23T00:41:08;27.52;;;14.93;;
22650;SDS011;11492;42.646;23.400;2024-02-23T00:43:40;30.10;;;15.00;;
22650;SDS011;11492;42.646;23.400;2024-02-23T00:46:07;28.73;;;15.52;;
22650;SDS011;11492;42.646;23.400;2024-02-23T00:48:33;28.63;;;15.05;;
22650;SDS011;11492;42.646;23.400;2024-02-23T00:51:01;27.52;;;15.10;;
22650;SDS011;11492;42.646;23.400;2024-02-23T00:53:28;31.48;;;15.00;;
22650;SDS011;11492;42.646;23.400;2024-02-23T00:55:56;34.55;;;15.43;;
22650;SDS011;11492;42.646;23.400;2024-02-23T00:58:22;33.15;;;16.40;;
22650;SDS011;11492;42.646;23.400;2024-02-23T01:00:47;24.30;;;13.95;;
22650;SDS011;11492;42.646;23.400;2024-02-23T01:03:13;26.65;;;14.70;;
22650;SDS011;11492;42.646;23.400;2024-02-23T01:05:39;26.42;;;14.45;;
22650;SDS011;11492;42.646;23.400;2024-02-23T01:08:05;26.88;;;14.68;;
22650;SDS011;11492;42.646;23.400;2024-02-23T01:10:31;28.92;;;15.15;;
22650;SDS011;11492;42.646;23.400;2024-02-23T01:12:56;28.55;;;15.43;;
22650;SDS011;11492;42.646;23.400;2024-02-23T01:15:22;28.85;;;15.45;;
22650;SDS011;11492;42.646;23.400;2024-02-23T01:17:48;28.30;;;15.48;;
22650;SDS011;11492;42.646;23.400;2024-02-23T01:20:14;28.02;;;15.43;;
22650;SDS011;11492;42.646;23.400;2024-02-23T01:22:40;24.40;;;14.88;;
22650;SDS011;11492;42.646;23.400;2024-02-23T01:25:06;27.55;;;15.23;;
22650;SDS011;11492;42.646;23.400;2024-02-23T01:27:32;24.63;;;14.95;;
22650;SDS011;11492;42.646;23.400;2024-02-23T01:29:58;31.52;;;15.43;;
22650;SDS011;11492;42.646;23.400;2024-02-23T01:32:24;29.60;;;14.32;;
22650;SDS011;11492;42.646;23.400;2024-02-23T01:34:49;27.45;;;14.95;;
22650;SDS011;11492;42.646;23.400;2024-02-23T01:37:15;29.10;;;15.32;;
22650;SDS011;11492;42.646;23.400;2024-02-23T01:39:41;27.42;;;14.52;;
22650;SDS011;11492;42.646;23.400;2024-02-23T01:42:07;33.25;;;14.98;;
22650;SDS011;11492;42.646;23.400;2024-02-23T01:44:34;23.35;;;12.48;;
22650;SDS011;11492;42.646;23.400;2024-02-23T01:46:59;27.00;;;13.88;;
22650;SDS011;11492;42.646;23.400;2024-02-23T01:49:25;24.80;;;13.70;;
22650;SDS011;11492;42.646;23.400;2024-02-23T01:51:57;25.42;;;13.50;;
22650;SDS011;11492;42.646;23.400;2024-02-23T01:54:24;22.88;;;13.70;;
22650;SDS011;11492;42.646;23.400;2024-02-23T01:56:50;23.55;;;12.80;;
22650;SDS011;11492;42.646;23.400;2024-02-23T01:59:17;28.15;;;14.15;;
22650;SDS011;11492;42.646;23.400;2024-02-23T02:01:44;23.92;;;13.07;;
22650;SDS011;11492;42.646;23.400;2024-02-23T02:04:11;29.45;;;13.88;;
22650;SDS011;11492;42.646;23.400;2024-02-23T02:06:36;26.02;;;13.23;;
22650;SDS011;11492;42.646;23.400;2024-02-23T02:09:03;25.80;;;13.18;;
22650;SDS011;11492;42.646;23.400;2024-02-23T02:11:28;35.00;;;13.32;;
22650;SDS011;11492;42.646;23.400;2024-02-23T02:13:54;27.65;;;13.40;;
22650;SDS011;11492;42.646;23.400;2024-02-23T02:16:20;22.98;;;13.45;;
22650;SDS011;11492;42.646;23.400;2024-02-23T02:18:46;20.63;;;12.07;;
22650;SDS011;11492;42.646;23.400;2024-02-23T02:21:21;24.90;;;12.80;;
22650;SDS011;11492;42.646;23.400;2024-02-23T02:23:54;21.67;;;12.55;;
22650;SDS011;11492;42.646;23.400;2024-02-23T02:26:20;23.08;;;12.50;;
22650;SDS011;11492;42.646;23.400;2024-02-23T02:28:45;20.98;;;12.63;;
22650;SDS011;11492;42.646;23.400;2024-02-23T02:31:12;22.20;;;12.75;;
22650;SDS011;11492;42.646;23.400;2024-02-23T02:33:39;23.05;;;13.48;;
22650;SDS011;11492;42.646;23.400;2024-02-23T02:36:06;24.27;;;13.30;;
22650;SDS011;11492;42.646;23.400;2024-02-23T02:38:31;26.77;;;14.85;;
22650;SDS011;11492;42.646;23.400;2024-02-23T02:41:01;28.60;;;13.93;;
22650;SDS011;11492;42.646;23.400;2024-02-23T02:43:27;25.50;;;14.70;;
22650;SDS011;11492;42.646;23.400;2024-02-23T02:45:53;26.30;;;15.40;;
22650;SDS011;11492;42.646;23.400;2024-02-23T02:48:19;26.10;;;15.15;;
22650;SDS011;11492;42.646;23.400;2024-02-23T02:50:45;31.45;;;15.88;;
22650;SDS011;11492;42.646;23.400;2024-02-23T02:53:10;28.05;;;15.75;;
22650;SDS011;11492;42.646;23.400;2024-02-23T02:55:39;31.83;;;16.58;;
22650;SDS011;11492;42.646;23.400;2024-02-23T02:58:07;34.38;;;16.13;;
22650;SDS011;11492;42.646;23.400;2024-02-23T03:00:33;30.35;;;16.30;;
22650;SDS011;11492;42.646;23.400;2024-02-23T03:02:59;28.17;;;15.85;;
22650;SDS011;11492;42.646;23.400;2024-02-23T03:05:24;36.13;;;16.35;;
22650;SDS011;11492;42.646;23.400;2024-02-23T03:07:50;33.20;;;15.45;;
22650;SDS011;11492;42.646;23.400;2024-02-23T03:10:16;34.00;;;15.60;;
22650;SDS011;11492;42.646;23.400;2024-02-23T03:12:42;29.35;;;14.20;;
22650;SDS011;11492;42.646;23.400;2024-02-23T03:15:08;25.92;;;13.95;;
22650;SDS011;11492;42.646;23.400;2024-02-23T03:17:35;24.08;;;14.10;;
22650;SDS011;11492;42.646;23.400;2024-02-23T03:20:01;28.55;;;14.43;;
22650;SDS011;11492;42.646;23.400;2024-02-23T03:22:30;27.08;;;14.27;;
22650;SDS011;11492;42.646;23.400;2024-02-23T03:24:58;31.08;;;14.25;;
22650;SDS011;11492;42.646;23.400;2024-02-23T03:27:27;22.88;;;14.35;;
22650;SDS011;11492;42.646;23.400;2024-02-23T03:29:57;23.27;;;14.13;;
22650;SDS011;11492;42.646;23.400;2024-02-23T03:32:22;24.40;;;13.50;;
22650;SDS011;11492;42.646;23.400;2024-02-23T03:34:48;25.20;;;13.77;;
22650;SDS011;11492;42.646;23.400;2024-02-23T03:37:14;25.50;;;13.93;;
22650;SDS011;11492;42.646;23.400;2024-02-23T03:39:40;25.20;;;13.48;;
22650;SDS011;11492;42.646;23.400;2024-02-23T03:42:06;25.23;;;13.23;;
22650;SDS011;11492;42.646;23.400;2024-02-23T03:44:32;27.23;;;14.57;;
22650;SDS011;11492;42.646;23.400;2024-02-23T03:46:58;23.48;;;13.27;;
22650;SDS011;11492;42.646;23.400;2024-02-23T03:49:23;22.00;;;12.65;;
22650;SDS011;11492;42.646;23.400;2024-02-23T03:51:49;28.60;;;13.27;;
22650;SDS011;11492;42.646;23.400;2024-02-23T03:54:15;26.30;;;13.85;;
22650;SDS011;11492;42.646;23.400;2024-02-23T03:56:41;24.85;;;13.38;;
22650;SDS011;11492;42.646;23.400;2024-02-23T03:59:08;23.65;;;13.25;;
22650;SDS011;11492;42.646;23.400;2024-02-23T04:01:37;22.85;;;13.05;;
22650;SDS011;11492;42.646;23.400;2024-02-23T04:04:05;28.52;;;13.82;;
22650;SDS011;11492;42.646;23.400;2024-02-23T04:06:31;23.23;;;12.57;;
22650;SDS011;11492;42.646;23.400;2024-02-23T04:08:58;25.55;;;12.63;;
22650;SDS011;11492;42.646;23.400;2024-02-23T04:11:24;23.10;;;12.90;;
22650;SDS011;11492;42.646;23.400;2024-02-23T04:13:50;25.70;;;13.57;;
22650;SDS011;11492;42.646;23.400;2024-02-23T04:16:16;22.10;;;12.80;;
22650;SDS011;11492;42.646;23.400;2024-02-23T04:18:41;27.55;;;14.00;;
22650;SDS011;11492;42.646;23.400;2024-02-23T04:21:07;19.90;;;12.50;;
22650;SDS011;11492;42.646;23.400;2024-02-23T04:23:33;29.83;;;12.70;;
22650;SDS011;11492;42.646;23.400;2024-02-23T04:25:59;23.02;;;13.00;;
22650;SDS011;11492;42.646;23.400;2024-02-23T04:28:25;27.33;;;14.20;;
22650;SDS011;11492;42.646;23.400;2024-02-23T04:30:53;28.02;;;12.88;;
22650;SDS011;11492;42.646;23.400;2024-02-23T04:33:19;21.77;;;13.10;;
22650;SDS011;11492;42.646;23.400;2024-02-23T04:35:45;20.33;;;12.80;;
22650;SDS011;11492;42.646;23.400;2024-02-23T04:38:11;22.63;;;13.07;;
22650;SDS011;11492;42.646;23.400;2024-02-23T04:40:37;20.75;;;12.18;;
22650;SDS011;11492;42.646;23.400;2024-02-23T04:43:03;23.70;;;12.57;;
22650;SDS011;11492;42.646;23.400;2024-02-23T04:45:29;21.48;;;12.30;;
22650;SDS011;11492;42.646;23.400;2024-02-23T04:47:55;21.15;;;12.50;;
22650;SDS011;11492;42.646;23.400;2024-02-23T04:50:21;23.30;;;12.98;;
22650;SDS011;11492;42.646;23.400;2024-02-23T04:52:48;22.42;;;12.10;;
22650;SDS011;11492;42.646;23.400;2024-02-23T04:55:15;25.02;;;12.65;;
22650;SDS011;11492;42.646;23.400;2024-02-23T04:57:41;20.98;;;12.52;;
22650;SDS011;11492;42.646;23.400;2024-02-23T05:00:07;22.75;;;13.18;;
22650;SDS011;11492;42.646;23.400;2024-02-23T05:02:34;22.10;;;12.77;;
22650;SDS011;11492;42.646;23.400;2024-02-23T05:05:01;24.73;;;12.82;;
22650;SDS011;11492;42.646;23.400;2024-02-23T05:07:30;20.45;;;12.88;;
22650;SDS011;11492;42.646;23.400;2024-02-23T05:09:59;23.48;;;13.02;;
22650;SDS011;11492;42.646;23.400;2024-02-23T05:12:25;21.52;;;13.00;;
22650;SDS011;11492;42.646;23.400;2024-02-23T05:14:51;23.30;;;13.25;;
22650;SDS011;11492;42.646;23.400;2024-02-23T05:17:17;22.13;;;13.02;;
22650;SDS011;11492;42.646;23.400;2024-02-23T05:19:43;23.90;;;13.35;;
22650;SDS011;11492;42.646;23.400;2024-02-23T05:22:12;23.33;;;12.65;;
22650;SDS011;11492;42.646;23.400;2024-02-23T05:24:38;24.13;;;13.52;;
22650;SDS011;11492;42.646;23.400;2024-02-23T05:27:04;23.63;;;12.85;;
22650;SDS011;11492;42.646;23.400;2024-02-23T05:29:30;25.65;;;13.82;;
22650;SDS011;11492;42.646;23.400;2024-02-23T05:31:57;27.95;;;14.32;;
22650;SDS011;11492;42.646;23.400;2024-02-23T05:34:23;26.20;;;15.02;;
22650;SDS011;11492;42.646;23.400;2024-02-23T05:36:48;29.15;;;14.90;;
22650;SDS011;11492;42.646;23.400;2024-02-23T05:39:16;27.40;;;14.73;;
22650;SDS011;11492;42.646;23.400;2024-02-23T05:41:43;23.92;;;13.73;;
22650;SDS011;11492;42.646;23.400;2024-02-23T05:44:09;36.42;;;15.02;;
22650;SDS011;11492;42.646;23.400;2024-02-23T05:46:35;24.75;;;14.93;;
22650;SDS011;11492;42.646;23.400;2024-02-23T05:49:02;28.05;;;14.77;;
22650;SDS011;11492;42.646;23.400;2024-02-23T05:51:31;29.77;;;14.45;;
22650;SDS011;11492;42.646;23.400;2024-02-23T05:53:57;31.48;;;15.38;;
22650;SDS011;11492;42.646;23.400;2024-02-23T05:56:24;31.45;;;15.95;;
22650;SDS011;11492;42.646;23.400;2024-02-23T05:58:50;41.60;;;15.23;;
22650;SDS011;11492;42.646;23.400;2024-02-23T06:01:17;27.15;;;14.40;;
22650;SDS011;11492;42.646;23.400;2024-02-23T06:03:44;39.15;;;15.65;;
22650;SDS011;11492;42.646;23.400;2024-02-23T06:06:11;33.63;;;15.48;;
22650;SDS011;11492;42.646;23.400;2024-02-23T06:08:37;40.25;;;15.45;;
22650;SDS011;11492;42.646;23.400;2024-02-23T06:11:03;30.95;;;15.88;;
22650;SDS011;11492;42.646;23.400;2024-02-23T06:13:32;30.60;;;16.77;;
22650;SDS011;11492;42.646;23.400;2024-02-23T06:15:59;38.10;;;17.52;;
22650;SDS011;11492;42.646;23.400;2024-02-23T06:18:25;33.20;;;16.33;;
22650;SDS011;11492;42.646;23.400;2024-02-23T06:20:51;31.50;;;16.25;;
22650;SDS011;11492;42.646;23.400;2024-02-23T06:23:16;39.97;;;17.15;;
22650;SDS011;11492;42.646;23.400;2024-02-23T06:25:43;34.10;;;17.73;;
22650;SDS011;11492;42.646;23.400;2024-02-23T06:28:09;45.38;;;17.95;;
22650;SDS011;11492;42.646;23.400;2024-02-23T06:30:36;38.30;;;17.55;;
22650;SDS011;11492;42.646;23.400;2024-02-23T06:33:01;33.00;;;17.48;;
22650;SDS011;11492;42.646;23.400;2024-02-23T06:35:27;45.13;;;19.58;;
22650;SDS011;11492;42.646;23.400;2024-02-23T06:37:52;37.05;;;17.08;;
22650;SDS011;11492;42.646;23.400;2024-02-23T06:40:18;45.08;;;18.55;;
22650;SDS011;11492;42.646;23.400;2024-02-23T06:42:44;39.83;;;18.65;;
22650;SDS011;11492;42.646;23.400;2024-02-23T06:45:09;41.30;;;18.85;;
22650;SDS011;11492;42.646;23.400;2024-02-23T06:47:36;43.50;;;18.73;;
22650;SDS011;11492;42.646;23.400;2024-02-23T06:50:01;40.22;;;19.10;;
22650;SDS011;11492;42.646;23.400;2024-02-23T06:52:28;37.00;;;18.67;;
22650;SDS011;11492;42.646;23.400;2024-02-23T06:54:54;42.15;;;19.33;;
22650;SDS011;11492;42.646;23.400;2024-02-23T06:57:19;42.28;;;18.38;;
22650;SDS011;11492;42.646;23.400;2024-02-23T06:59:45;42.47;;;17.98;;
22650;SDS011;11492;42.646;23.400;2024-02-23T07:02:11;38.58;;;18.00;;
22650;SDS011;11492;42.646;23.400;2024-02-23T07:04:36;38.20;;;18.13;;
22650;SDS011;11492;42.646;23.400;2024-02-23T07:07:02;41.75;;;18.88;;
22650;SDS011;11492;42.646;23.400;2024-02-23T07:09:32;38.88;;;19.08;;
22650;SDS011;11492;42.646;23.400;2024-02-23T07:11:58;35.03;;;18.85;;
22650;SDS011;11492;42.646;23.400;2024-02-23T07:14:24;35.17;;;19.02;;
22650;SDS011;11492;42.646;23.400;2024-02-23T07:16:50;39.13;;;18.67;;
22650;SDS011;11492;42.646;23.400;2024-02-23T07:19:17;48.15;;;19.95;;
22650;SDS011;11492;42.646;23.400;2024-02-23T07:21:43;39.63;;;19.33;;
22650;SDS011;11492;42.646;23.400;2024-02-23T07:24:08;52.05;;;21.92;;
22650;SDS011;11492;42.646;23.400;2024-02-23T07:26:34;45.33;;;22.63;;
22650;SDS011;11492;42.646;23.400;2024-02-23T07:29:00;49.65;;;21.83;;
22650;SDS011;11492;42.646;23.400;2024-02-23T07:31:25;44.83;;;22.88;;
22650;SDS011;11492;42.646;23.400;2024-02-23T07:33:51;42.15;;;20.65;;
22650;SDS011;11492;42.646;23.400;2024-02-23T07:36:17;37.80;;;21.30;;
22650;SDS011;11492;42.646;23.400;2024-02-23T07:38:43;38.67;;;21.40;;
22650;SDS011;11492;42.646;23.400;2024-02-23T07:41:10;43.63;;;21.00;;
22650;SDS011;11492;42.646;23.400;2024-02-23T07:43:36;40.15;;;20.15;;
22650;SDS011;11492;42.646;23.400;2024-02-23T07:46:02;49.15;;;21.20;;
22650;SDS011;11492;42.646;23.400;2024-02-23T07:48:29;42.88;;;19.25;;
22650;SDS011;11492;42.646;23.400;2024-02-23T07:50:55;37.03;;;18.33;;
22650;SDS011;11492;42.646;23.400;2024-02-23T07:53:21;38.90;;;18.42;;
22650;SDS011;11492;42.646;23.400;2024-02-23T07:55:48;39.70;;;17.75;;
22650;SDS011;11492;42.646;23.400;2024-02-23T07:58:14;35.67;;;17.48;;
22650;SDS011;11492;42.646;23.400;2024-02-23T08:00:40;34.50;;;17.40;;
22650;SDS011;11492;42.646;23.400;2024-02-23T08:03:05;34.35;;;17.23;;
22650;SDS011;11492;42.646;23.400;2024-02-23T08:05:32;28.90;;;15.93;;
22650;SDS011;11492;42.646;23.400;2024-02-23T08:07:58;38.00;;;15.07;;
22650;SDS011;11492;42.646;23.400;2024-02-23T08:10:24;31.48;;;13.55;;
22650;SDS011;11492;42.646;23.400;2024-02-23T08:12:51;181.02;;;19.13;;
22650;SDS011;11492;42.646;23.400;2024-02-23T08:15:16;53.20;;;13.38;;
22650;SDS011;11492;42.646;23.400;2024-02-23T08:17:43;37.17;;;12.73;;
22650;SDS011;11492;42.646;23.400;2024-02-23T08:20:09;80.97;;;15.55;;
22650;SDS011;11492;42.646;23.400;2024-02-23T08:22:35;180.70;;;18.80;;
22650;SDS011;11492;42.646;23.400;2024-02-23T08:25:01;85.80;;;13.23;;
22650;SDS011;11492;42.646;23.400;2024-02-23T08:27:26;39.33;;;11.10;;
22650;SDS011;11492;42.646;23.400;2024-02-23T08:29:52;19.35;;;9.30;;
22650;SDS011;11492;42.646;23.400;2024-02-23T08:32:18;21.60;;;9.18;;
22650;SDS011;11492;42.646;23.400;2024-02-23T08:34:44;20.92;;;8.18;;
22650;SDS011;11492;42.646;23.400;2024-02-23T08:37:09;14.98;;;8.10;;
22650;SDS011;11492;42.646;23.400;2024-02-23T08:39:35;13.60;;;7.95;;
22650;SDS011;11492;42.646;23.400;2024-02-23T08:42:02;11.60;;;7.55;;
22650;SDS011;11492;42.646;23.400;2024-02-23T08:44:28;13.38;;;7.90;;
22650;SDS011;11492;42.646;23.400;2024-02-23T08:46:54;14.82;;;7.40;;
22650;SDS011;11492;42.646;23.400;2024-02-23T08:49:20;15.68;;;7.78;;
22650;SDS011;11492;42.646;23.400;2024-02-23T08:51:46;10.15;;;7.60;;
22650;SDS011;11492;42.646;23.400;2024-02-23T08:54:12;13.95;;;8.15;;
22650;SDS011;11492;42.646;23.400;2024-02-23T08:56:37;10.70;;;7.50;;
22650;SDS011;11492;42.646;23.400;2024-02-23T08:59:08;11.48;;;7.70;;
22650;SDS011;11492;42.646;23.400;2024-02-23T09:01:37;11.40;;;7.60;;
22650;SDS011;11492;42.646;23.400;2024-02-23T09:04:02;14.75;;;7.55;;
22650;SDS011;11492;42.646;23.400;2024-02-23T09:06:28;15.57;;;7.00;;
22650;SDS011;11492;42.646;23.400;2024-02-23T09:08:54;13.70;;;6.47;;
22650;SDS011;11492;42.646;23.400;2024-02-23T09:11:19;10.98;;;7.38;;
22650;SDS011;11492;42.646;23.400;2024-02-23T09:13:45;13.45;;;7.55;;
22650;SDS011;11492;42.646;23.400;2024-02-23T09:16:11;15.88;;;7.50;;
22650;SDS011;11492;42.646;23.400;2024-02-23T09:18:37;15.80;;;7.35;;
22650;SDS011;11492;42.646;23.400;2024-02-23T09:21:02;13.05;;;6.95;;
22650;SDS011;11492;42.646;23.400;2024-02-23T09:23:28;10.65;;;6.97;;
22650;SDS011;11492;42.646;23.400;2024-02-23T09:25:54;9.85;;;6.25;;
22650;SDS011;11492;42.646;23.400;2024-02-23T09:28:19;9.25;;;5.85;;
22650;SDS011;11492;42.646;23.400;2024-02-23T09:30:45;14.05;;;6.05;;
22650;SDS011;11492;42.646;23.400;2024-02-23T09:33:11;9.38;;;5.47;;
22650;SDS011;11492;42.646;23.400;2024-02-23T09:35:36;11.90;;;6.03;;
22650;SDS011;11492;42.646;23.400;2024-02-23T09:38:02;11.70;;;5.63;;
22650;SDS011;11492;42.646;23.400;2024-02-23T09:40:28;14.10;;;5.85;;
22650;SDS011;11492;42.646;23.400;2024-02-23T09:42:57;12.75;;;5.93;;
22650;SDS011;11492;42.646;23.400;2024-02-23T09:45:24;7.05;;;5.18;;
22650;SDS011;11492;42.646;23.400;2024-02-23T09:47:51;11.35;;;5.40;;
22650;SDS011;11492;42.646;23.400;2024-02-23T09:50:18;6.68;;;4.60;;
22650;SDS011;11492;42.646;23.400;2024-02-23T09:52:47;9.88;;;4.93;;
22650;SDS011;11492;42.646;23.400;2024-02-23T09:55:15;12.70;;;4.65;;
22650;SDS011;11492;42.646;23.400;2024-02-23T09:57:42;7.43;;;4.75;;
22650;SDS011;11492;42.646;23.400;2024-02-23T10:00:09;10.25;;;5.50;;
22650;SDS011;11492;42.646;23.400;2024-02-23T10:02:35;8.27;;;4.10;;
22650;SDS011;11492;42.646;23.400;2024-02-23T10:05:01;12.15;;;5.90;;
22650;SDS011;11492;42.646;23.400;2024-02-23T10:07:28;10.25;;;4.75;;
22650;SDS011;11492;42.646;23.400;2024-02-23T10:09:53;11.73;;;4.57;;
22650;SDS011;11492;42.646;23.400;2024-02-23T10:12:20;9.07;;;4.15;;
22650;SDS011;11492;42.646;23.400;2024-02-23T10:14:46;5.82;;;3.70;;
22650;SDS011;11492;42.646;23.400;2024-02-23T10:17:12;6.63;;;4.50;;
22650;SDS011;11492;42.646;23.400;2024-02-23T10:19:37;5.75;;;3.70;;
22650;SDS011;11492;42.646;23.400;2024-02-23T10:22:03;6.22;;;3.67;;
22650;SDS011;11492;42.646;23.400;2024-02-23T10:24:30;4.55;;;3.22;;
22650;SDS011;11492;42.646;23.400;2024-02-23T10:26:55;5.93;;;3.55;;
22650;SDS011;11492;42.646;23.400;2024-02-23T10:29:22;5.13;;;3.17;;
22650;SDS011;11492;42.646;23.400;2024-02-23T10:31:48;4.97;;;2.50;;
22650;SDS011;11492;42.646;23.400;2024-02-23T10:34:17;3.08;;;2.50;;
22650;SDS011;11492;42.646;23.400;2024-02-23T10:36:44;5.60;;;2.47;;
22650;SDS011;11492;42.646;23.400;2024-02-23T10:39:15;7.20;;;2.58;;
22650;SDS011;11492;42.646;23.400;2024-02-23T10:41:44;8.02;;;2.88;;
22650;SDS011;11492;42.646;23.400;2024-02-23T10:44:14;6.55;;;2.88;;
22650;SDS011;11492;42.646;23.400;2024-02-23T10:46:42;3.75;;;2.47;;
22650;SDS011;11492;42.646;23.400;2024-02-23T10:49:09;4.15;;;2.58;;
22650;SDS011;11492;42.646;23.400;2024-02-23T10:51:38;4.57;;;2.85;;
22650;SDS011;11492;42.646;23.400;2024-02-23T10:54:06;3.95;;;2.30;;
22650;SDS011;11492;42.646;23.400;2024-02-23T10:56:31;6.82;;;2.78;;
22650;SDS011;11492;42.646;23.400;2024-02-23T10:58:57;3.72;;;2.38;;
22650;SDS011;11492;42.646;23.400;2024-02-23T11:01:23;3.85;;;2.50;;
22650;SDS011;11492;42.646;23.400;2024-02-23T11:03:50;7.75;;;2.50;;
22650;SDS011;11492;42.646;23.400;2024-02-23T11:06:18;3.35;;;2.08;;
22650;SDS011;11492;42.646;23.400;2024-02-23T11:08:49;3.13;;;2.10;;
22650;SDS011;11492;42.646;23.400;2024-02-23T11:11:16;2.65;;;2.25;;
22650;SDS011;11492;42.646;23.400;2024-02-23T11:13:45;3.35;;;2.10;;
22650;SDS011;11492;42.646;23.400;2024-02-23T11:16:12;4.00;;;2.58;;
22650;SDS011;11492;42.646;23.400;2024-02-23T11:18:48;3.55;;;2.20;;
22650;SDS011;11492;42.646;23.400;2024-02-23T11:21:14;4.88;;;2.13;;
22650;SDS011;11492;42.646;23.400;2024-02-23T11:23:42;3.97;;;2.20;;
22650;SDS011;11492;42.646;23.400;2024-02-23T11:26:10;5.38;;;2.45;;
22650;SDS011;11492;42.646;23.400;2024-02-23T11:28:57;7.95;;;2.53;;
22650;SDS011;11492;42.646;23.400;2024-02-23T11:31:23;4.50;;;2.10;;
22650;SDS011;11492;42.646;23.400;2024-02-23T11:33:54;3.45;;;2.22;;
22650;SDS011;11492;42.646;23.400;2024-02-23T11:38:57;4.13;;;2.42;;
22650;SDS011;11492;42.646;23.400;2024-02-23T11:41:26;4.80;;;2.50;;
22650;SDS011;11492;42.646;23.400;2024-02-23T11:43:53;3.72;;;2.38;;
22650;SDS011;11492;42.646;23.400;2024-02-23T11:46:26;6.80;;;2.20;;
22650;SDS011;11492;42.646;23.400;2024-02-23T11:48:52;2.00;;;1.80;;
22650;SDS011;11492;42.646;23.400;2024-02-23T11:51:21;4.10;;;2.10;;
22650;SDS011;11492;42.646;23.400;2024-02-23T11:53:49;4.50;;;2.47;;
22650;SDS011;11492;42.646;23.400;2024-02-23T11:56:15;3.60;;;1.90;;
22650;SDS011;11492;42.646;23.400;2024-02-23T11:58:42;2.42;;;1.60;;
22650;SDS011;11492;42.646;23.400;2024-02-23T12:01:09;2.67;;;1.60;;
22650;SDS011;11492;42.646;23.400;2024-02-23T12:03:35;1.75;;;1.52;;
22650;SDS011;11492;42.646;23.400;2024-02-23T12:06:01;1.80;;;1.55;;
22650;SDS011;11492;42.646;23.400;2024-02-23T12:08:29;3.53;;;3.17;;
22650;SDS011;11492;42.646;23.400;2024-02-23T12:11:14;1.88;;;1.25;;
22650;SDS011;11492;42.646;23.400;2024-02-23T12:13:41;2.20;;;1.50;;
22650;SDS011;11492;42.646;23.400;2024-02-23T12:16:08;1.85;;;1.50;;
22650;SDS011;11492;42.646;23.400;2024-02-23T12:18:35;2.22;;;1.40;;
22650;SDS011;11492;42.646;23.400;2024-02-23T12:21:04;5.35;;;1.80;;
22650;SDS011;11492;42.646;23.400;2024-02-23T12:23:40;4.65;;;1.92;;
22650;SDS011;11492;42.646;23.400;2024-02-23T12:26:07;4.68;;;1.60;;
22650;SDS011;11492;42.646;23.400;2024-02-23T12:28:33;4.78;;;1.95;;
22650;SDS011;11492;42.646;23.400;2024-02-23T12:31:00;2.33;;;1.77;;
22650;SDS011;11492;42.646;23.400;2024-02-23T12:33:28;3.72;;;1.65;;
22650;SDS011;11492;42.646;23.400;2024-02-23T12:35:56;4.50;;;1.77;;
22650;SDS011;11492;42.646;23.400;2024-02-23T12:38:24;5.05;;;1.83;;
22650;SDS011;11492;42.646;23.400;2024-02-23T12:40:50;4.35;;;1.80;;
22650;SDS011;11492;42.646;23.400;2024-02-23T12:43:17;3.75;;;1.80;;
22650;SDS011;11492;42.646;23.400;2024-02-23T12:45:43;1.48;;;1.30;;
22650;SDS011;11492;42.646;23.400;2024-02-23T12:48:14;2.92;;;1.45;;
22650;SDS011;11492;42.646;23.400;2024-02-23T12:50:41;5.43;;;1.58;;
22650;SDS011;11492;42.646;23.400;2024-02-23T12:53:08;2.15;;;1.60;;
22650;SDS011;11492;42.646;23.400;2024-02-23T12:55:35;3.35;;;2.00;;
22650;SDS011;11492;42.646;23.400;2024-02-23T12:58:02;5.53;;;1.92;;
22650;SDS011;11492;42.646;23.400;2024-02-23T13:00:28;3.15;;;1.70;;
22650;SDS011;11492;42.646;23.400;2024-02-23T13:02:54;3.50;;;2.00;;
22650;SDS011;11492;42.646;23.400;2024-02-23T13:05:20;2.92;;;1.48;;
22650;SDS011;11492;42.646;23.400;2024-02-23T13:07:46;3.50;;;1.92;;
22650;SDS011;11492;42.646;23.400;2024-02-23T13:10:13;4.07;;;1.50;;
22650;SDS011;11492;42.646;23.400;2024-02-23T13:12:39;2.78;;;1.60;;
22650;SDS011;11492;42.646;23.400;2024-02-23T13:15:06;2.05;;;1.70;;
22650;SDS011;11492;42.646;23.400;2024-02-23T13:17:33;3.20;;;1.83;;
22650;SDS011;11492;42.646;23.400;2024-02-23T13:19:59;5.10;;;2.00;;
22650;SDS011;11492;42.646;23.400;2024-02-23T13:22:24;2.40;;;1.80;;
22650;SDS011;11492;42.646;23.400;2024-02-23T13:24:50;8.23;;;2.15;;
22650;SDS011;11492;42.646;23.400;2024-02-23T13:27:16;3.63;;;1.83;;
22650;SDS011;11492;42.646;23.400;2024-02-23T13:29:42;2.78;;;1.95;;
22650;SDS011;11492;42.646;23.400;2024-02-23T13:32:08;3.33;;;1.98;;
22650;SDS011;11492;42.646;23.400;2024-02-23T13:34:34;4.55;;;2.35;;
22650;SDS011;11492;42.646;23.400;2024-02-23T13:37:00;10.35;;;2.60;;
22650;SDS011;11492;42.646;23.400;2024-02-23T13:39:26;5.13;;;2.15;;
22650;SDS011;11492;42.646;23.400;2024-02-23T13:41:52;3.88;;;1.98;;
22650;SDS011;11492;42.646;23.400;2024-02-23T13:44:18;5.38;;;2.67;;
22650;SDS011;11492;42.646;23.400;2024-02-23T13:46:44;3.65;;;2.20;;
22650;SDS011;11492;42.646;23.400;2024-02-23T13:49:13;6.15;;;2.53;;
22650;SDS011;11492;42.646;23.400;2024-02-23T13:51:39;6.43;;;2.80;;
22650;SDS011;11492;42.646;23.400;2024-02-23T13:54:05;7.43;;;2.50;;
22650;SDS011;11492;42.646;23.400;2024-02-23T13:56:31;14.18;;;2.92;;
22650;SDS011;11492;42.646;23.400;2024-02-23T13:58:57;4.72;;;2.20;;
22650;SDS011;11492;42.646;23.400;2024-02-23T14:01:23;10.75;;;2.15;;
22650;SDS011;11492;42.646;23.400;2024-02-23T14:03:49;4.90;;;1.98;;
22650;SDS011;11492;42.646;23.400;2024-02-23T14:06:15;5.50;;;2.40;;
22650;SDS011;11492;42.646;23.400;2024-02-23T14:08:42;5.10;;;2.60;;
22650;SDS011;11492;42.646;23.400;2024-02-23T14:11:09;5.15;;;2.53;;
22650;SDS011;11492;42.646;23.400;2024-02-23T14:13:36;3.30;;;2.10;;
22650;SDS011;11492;42.646;23.400;2024-02-23T14:16:02;5.75;;;2.60;;
22650;SDS011;11492;42.646;23.400;2024-02-23T14:18:29;5.63;;;1.80;;